Time;durP1;ratioP1;P1;durP2;ratioP2;P2;SDS_P1;SDS_P2;PMS_P1;PMS_P2;Temp;Humidity;BMP_temperature;BMP_pressure;BME280_temperature;BME280_humidity;BME280_pressure;Samples;Min_cycle;Max_cycle;Signal;HPM_P1;HPM_P2
2022/07/02 00:00:15;;;;;;;0.30;0.10;;;13.70;99.90;;;;;;5086593;28;20042;-72
2022/07/02 00:02:43;;;;;;;0.17;0.08;;;13.70;99.90;;;;;;5061135;28;20032;-73
2022/07/02 00:05:13;;;;;;;0.20;0.10;;;13.70;99.90;;;;;;5087600;28;20087;-72
2022/07/02 00:07:39;;;;;;;0.10;0.10;;;13.70;99.90;;;;;;5086424;28;20044;-72
2022/07/02 00:10:06;;;;;;;0.10;0.10;;;13.70;99.90;;;;;;5073243;28;20042;-73
2022/07/02 00:12:32;;;;;;;0.30;0.10;;;13.60;99.90;;;;;;5088514;28;20085;-73
2022/07/02 00:14:59;;;;;;;0.00;0.00;;;13.60;99.90;;;;;;5086986;28;20040;-72
2022/07/02 00:17:26;;;;;;;0.70;0.10;;;13.60;99.90;;;;;;5064807;28;20086;-72
2022/07/02 00:19:52;;;;;;;0.25;0.20;;;13.60;99.90;;;;;;5089616;28;20483;-72
2022/07/02 00:22:19;;;;;;;0.38;0.10;;;13.50;99.90;;;;;;5080451;28;20470;-72
2022/07/02 00:24:45;;;;;;;0.10;0.10;;;13.50;99.90;;;;;;5082712;28;20086;-72
2022/07/02 00:27:14;;;;;;;0.15;0.08;;;13.50;99.90;;;;;;5086980;28;20032;-73
2022/07/02 00:29:59;;;;;;;0.00;0.00;;;13.40;99.90;;;;;;5069925;28;20075;-72
2022/07/02 00:32:27;;;;;;;0.20;0.20;;;13.40;99.90;;;;;;5098980;28;20464;-72
2022/07/02 00:34:56;;;;;;;0.10;0.10;;;13.30;99.90;;;;;;5082263;28;20036;-72
2022/07/02 00:37:22;;;;;;;0.13;0.13;;;13.30;99.90;;;;;;5088554;28;20051;-72
2022/07/02 00:39:48;;;;;;;;;;;13.30;99.90;;;;;;5066607;28;20043;-72
2022/07/02 00:42:14;;;;;;;0.30;0.10;;;13.20;99.90;;;;;;5101353;28;20655;-72
2022/07/02 00:44:40;;;;;;;;;;;13.20;99.90;;;;;;5088390;28;20064;-72
2022/07/02 00:47:09;;;;;;;0.10;0.10;;;13.10;99.90;;;;;;5087342;28;20009;-72
2022/07/02 00:49:36;;;;;;;0.10;0.10;;;13.10;99.90;;;;;;5079341;28;20066;-72
2022/07/02 00:52:03;;;;;;;0.10;0.10;;;13.20;99.90;;;;;;5084838;28;20092;-72
2022/07/02 00:54:29;;;;;;;0.00;0.00;;;13.00;99.90;;;;;;5087580;28;20092;-72
2022/07/02 00:56:55;;;;;;;0.47;0.17;;;13.00;99.90;;;;;;5086551;28;20039;-72
2022/07/02 00:59:21;;;;;;;;;;;13.00;99.90;;;;;;5089139;28;20422;-72
2022/07/02 01:01:47;;;;;;;0.10;0.10;;;12.90;99.90;;;;;;5088749;28;20259;-72
2022/07/02 01:04:15;;;;;;;0.38;0.20;;;12.90;99.90;;;;;;5092011;28;20036;-72
2022/07/02 01:06:42;;;;;;;0.40;0.10;;;12.90;99.90;;;;;;5093187;28;20069;-72
2022/07/02 01:11:57;;;;;;;0.93;0.30;;;12.90;99.90;;;;;;5090112;28;20054;-72
2022/07/02 01:14:24;;;;;;;0.30;0.10;;;12.90;99.90;;;;;;5094580;28;20447;-72
2022/07/02 01:16:50;;;;;;;0.70;0.20;;;12.90;99.90;;;;;;5080640;28;20046;-73
2022/07/02 01:19:19;;;;;;;0.25;0.20;;;12.80;99.90;;;;;;5100761;28;20044;-72
2022/07/02 01:22:14;;;;;;;0.30;0.20;;;12.80;99.90;;;;;;5079455;28;20047;-72
2022/07/02 01:24:40;;;;;;;0.13;0.13;;;12.80;99.90;;;;;;5075793;28;20067;-72
2022/07/02 01:27:06;;;;;;;0.25;0.20;;;12.80;99.90;;;;;;5093278;28;20048;-72
2022/07/02 01:29:31;;;;;;;0.10;0.10;;;12.70;99.90;;;;;;5094477;28;20085;-72
2022/07/02 01:31:57;;;;;;;0.10;0.10;;;12.80;99.90;;;;;;5094917;28;20096;-72
2022/07/02 01:34:23;;;;;;;0.40;0.22;;;12.80;99.90;;;;;;5096604;28;20084;-72
2022/07/02 01:36:49;;;;;;;0.38;0.20;;;12.70;99.90;;;;;;5091974;28;20045;-72
2022/07/02 01:39:15;;;;;;;0.40;0.10;;;12.70;99.90;;;;;;5094356;28;20050;-72
2022/07/02 01:41:41;;;;;;;0.22;0.17;;;12.70;99.90;;;;;;5093753;28;20040;-72
2022/07/02 01:44:07;;;;;;;0.10;0.10;;;12.70;99.90;;;;;;5077999;28;20088;-73
2022/07/02 01:46:33;;;;;;;;;;;12.70;99.90;;;;;;5088209;28;20044;-72
2022/07/02 01:49:00;;;;;;;0.30;0.20;;;12.70;99.90;;;;;;5091967;28;20355;-72
2022/07/02 01:51:25;;;;;;;;;;;12.60;99.90;;;;;;5104586;28;20043;-72
2022/07/02 01:53:51;;;;;;;0.20;0.20;;;12.70;99.90;;;;;;5103252;28;20115;-72
2022/07/02 01:56:17;;;;;;;0.22;0.10;;;12.60;99.90;;;;;;5095358;28;20050;-72
2022/07/02 01:58:43;;;;;;;;;;;12.60;99.90;;;;;;5069184;28;20122;-73
2022/07/02 02:01:09;;;;;;;0.30;0.20;;;12.50;99.90;;;;;;5089312;28;20006;-72
2022/07/02 02:03:34;;;;;;;0.20;0.20;;;12.60;99.90;;;;;;5079364;28;20052;-72
2022/07/02 02:06:00;;;;;;;0.38;0.30;;;12.50;99.90;;;;;;5090560;27;20211;-73
2022/07/02 02:08:25;;;;;;;0.90;0.30;;;12.50;99.90;;;;;;5097983;28;20051;-72
2022/07/02 02:10:51;;;;;;;0.82;0.30;;;12.50;99.90;;;;;;5078774;28;20452;-72
2022/07/02 02:13:17;;;;;;;0.20;0.10;;;12.50;99.90;;;;;;5093517;28;20664;-72
2022/07/02 02:15:43;;;;;;;0.20;0.15;;;12.50;99.90;;;;;;5106702;28;20420;-72
2022/07/02 02:18:08;;;;;;;0.20;0.20;;;12.40;99.90;;;;;;5093198;28;20122;-72
2022/07/02 02:20:34;;;;;;;0.32;0.10;;;12.40;99.90;;;;;;5094657;28;20048;-72
2022/07/02 02:23:01;;;;;;;0.25;0.20;;;12.50;99.90;;;;;;5078812;28;20380;-72
2022/07/02 02:25:26;;;;;;;1.00;0.38;;;12.40;99.90;;;;;;5076845;28;20157;-73
2022/07/02 02:27:52;;;;;;;0.43;0.20;;;12.40;99.90;;;;;;5094297;28;20126;-72
2022/07/02 02:30:18;;;;;;;0.47;0.20;;;12.40;99.90;;;;;;5094891;28;20039;-72
2022/07/02 02:32:44;;;;;;;0.20;0.20;;;12.30;99.90;;;;;;5094924;28;20065;-73
2022/07/02 02:35:10;;;;;;;0.65;0.40;;;12.40;99.90;;;;;;5079163;28;20038;-72
2022/07/02 02:37:35;;;;;;;0.25;0.25;;;12.40;99.90;;;;;;5087682;28;20445;-72
2022/07/02 02:40:01;;;;;;;0.22;0.22;;;12.30;99.90;;;;;;5084653;28;20043;-72
2022/07/02 02:42:26;;;;;;;0.98;0.40;;;12.30;99.90;;;;;;5077834;28;20039;-72
2022/07/02 02:44:52;;;;;;;0.60;0.60;;;12.30;99.90;;;;;;5093962;28;20432;-72
2022/07/02 02:47:21;;;;;;;0.43;0.30;;;12.30;99.90;;;;;;5092956;28;20527;-72
2022/07/02 02:49:47;;;;;;;0.22;0.22;;;12.30;99.90;;;;;;5093922;28;20051;-72
2022/07/02 02:52:13;;;;;;;0.25;0.20;;;12.30;99.90;;;;;;5076362;28;20678;-72
2022/07/02 02:54:38;;;;;;;0.40;0.30;;;12.20;99.90;;;;;;5067993;28;20039;-72
2022/07/02 02:57:04;;;;;;;0.20;0.20;;;12.20;99.90;;;;;;5087613;28;20047;-73
2022/07/02 02:59:30;;;;;;;0.40;0.20;;;12.30;99.90;;;;;;5067993;28;20054;-72
2022/07/02 03:01:56;;;;;;;0.20;0.20;;;12.30;99.90;;;;;;5074499;28;20043;-72
2022/07/02 03:04:21;;;;;;;0.20;0.20;;;12.20;99.90;;;;;;5093578;28;20130;-72
2022/07/02 03:06:47;;;;;;;0.15;0.15;;;12.20;99.90;;;;;;5089475;28;20082;-72
2022/07/02 03:09:13;;;;;;;0.20;0.20;;;12.20;99.90;;;;;;5091165;28;20070;-72
2022/07/02 03:11:38;;;;;;;0.43;0.20;;;12.20;99.90;;;;;;5092090;28;20120;-72
2022/07/02 03:14:04;;;;;;;0.10;0.10;;;12.20;99.90;;;;;;5084242;28;20028;-72
2022/07/02 03:16:30;;;;;;;0.30;0.20;;;12.10;99.90;;;;;;5091700;28;20062;-73
2022/07/02 03:18:55;;;;;;;0.25;0.20;;;12.20;99.90;;;;;;5073345;28;20035;-72
2022/07/02 03:21:21;;;;;;;0.20;0.20;;;12.10;99.90;;;;;;5072782;28;20062;-72
2022/07/02 03:23:47;;;;;;;0.10;0.10;;;12.10;99.90;;;;;;5092961;28;20039;-72
2022/07/02 03:26:12;;;;;;;0.10;0.10;;;12.20;99.90;;;;;;5107195;28;20115;-72
2022/07/02 03:28:38;;;;;;;0.10;0.10;;;12.20;99.90;;;;;;5091497;27;20105;-72
2022/07/02 03:31:04;;;;;;;0.22;0.22;;;12.10;99.90;;;;;;5091961;28;20035;-72
2022/07/02 03:33:29;;;;;;;0.40;0.25;;;12.10;99.90;;;;;;5071440;28;20841;-72
2022/07/02 03:35:55;;;;;;;0.35;0.20;;;12.20;99.90;;;;;;5090450;28;20066;-73
2022/07/02 03:38:20;;;;;;;0.10;0.10;;;12.10;99.90;;;;;;5084200;28;20563;-72
2022/07/02 03:40:46;;;;;;;0.20;0.20;;;12.10;99.90;;;;;;5092954;28;20078;-72
2022/07/02 03:43:12;;;;;;;0.20;0.20;;;12.20;99.90;;;;;;5075724;28;20043;-73
2022/07/02 03:45:37;;;;;;;0.28;0.20;;;12.10;99.90;;;;;;5094422;27;20088;-72
2022/07/02 03:48:04;;;;;;;0.38;0.10;;;12.20;99.90;;;;;;5068621;28;20055;-72
2022/07/02 03:50:29;;;;;;;0.30;0.20;;;12.20;99.90;;;;;;5090015;28;20486;-72
2022/07/02 03:52:55;;;;;;;0.20;0.20;;;12.20;99.90;;;;;;5091671;28;20042;-72
2022/07/02 03:55:21;;;;;;;0.57;0.28;;;12.30;99.90;;;;;;5093287;28;20067;-73
2022/07/02 03:57:46;;;;;;;0.10;0.10;;;12.20;99.90;;;;;;5093440;28;20039;-72
2022/07/02 04:00:12;;;;;;;0.20;0.20;;;12.30;99.90;;;;;;5075329;28;20093;-72
2022/07/02 04:02:39;;;;;;;0.43;0.28;;;12.30;99.90;;;;;;5079386;28;20111;-72
2022/07/02 04:05:05;;;;;;;1.45;0.47;;;12.40;99.90;;;;;;5088946;28;20054;-72
2022/07/02 04:07:31;;;;;;;0.45;0.38;;;12.40;99.90;;;;;;5074406;28;20059;-72
2022/07/02 04:09:57;;;;;;;0.77;0.40;;;12.40;99.90;;;;;;5073794;28;20035;-72
2022/07/02 04:12:22;;;;;;;0.30;0.30;;;12.40;99.90;;;;;;5087260;28;20035;-72
2022/07/02 04:14:49;;;;;;;0.70;0.50;;;12.40;99.90;;;;;;5074330;28;20486;-72
2022/07/02 04:17:14;;;;;;;0.80;0.43;;;12.40;99.90;;;;;;5092715;28;20039;-72
2022/07/02 04:19:40;;;;;;;0.30;0.30;;;12.50;99.90;;;;;;5077350;28;20043;-72
2022/07/02 04:22:06;;;;;;;0.30;0.30;;;12.50;99.90;;;;;;5088315;28;20043;-72
2022/07/02 04:24:32;;;;;;;0.40;0.35;;;12.50;99.90;;;;;;5086747;28;20047;-72
2022/07/02 04:26:57;;;;;;;1.63;0.30;;;12.50;99.90;;;;;;5091424;28;20035;-72
2022/07/02 04:29:23;;;;;;;0.20;0.20;;;12.60;99.90;;;;;;5091735;28;20039;-72
2022/07/02 04:31:49;;;;;;;0.45;0.40;;;12.70;99.90;;;;;;5092040;28;20028;-72
2022/07/02 04:34:14;;;;;;;0.68;0.30;;;12.70;99.90;;;;;;5084783;28;20486;-72
2022/07/02 04:36:40;;;;;;;0.45;0.32;;;12.70;99.90;;;;;;5093118;28;20206;-72
2022/07/02 04:39:06;;;;;;;0.30;0.30;;;12.70;99.90;;;;;;5067548;28;20039;-72
2022/07/02 04:41:32;;;;;;;0.30;0.20;;;12.90;99.90;;;;;;5087576;28;20046;-72
2022/07/02 04:43:58;;;;;;;0.25;0.20;;;12.90;99.90;;;;;;5081879;28;20039;-72
2022/07/02 04:46:24;;;;;;;;;;;13.00;99.90;;;;;;5091847;28;20387;-72
2022/07/02 04:48:50;;;;;;;0.63;0.38;;;13.00;99.90;;;;;;5083429;28;19977;-72
2022/07/02 04:51:15;;;;;;;0.43;0.30;;;13.00;99.90;;;;;;5087225;28;20510;-73
2022/07/02 04:53:41;;;;;;;0.85;0.47;;;13.00;99.90;;;;;;5092027;28;20036;-74
2022/07/02 04:56:07;;;;;;;0.50;0.35;;;13.10;99.90;;;;;;5090404;28;20051;-73
2022/07/02 04:58:32;;;;;;;0.32;0.28;;;13.10;99.90;;;;;;5073181;28;20039;-74
2022/07/02 05:00:58;;;;;;;0.77;0.40;;;13.20;99.90;;;;;;5073140;28;20044;-73
2022/07/02 05:03:24;;;;;;;0.52;0.30;;;13.20;99.90;;;;;;5069504;28;20044;-73
2022/07/02 05:05:49;;;;;;;1.02;0.22;;;13.30;99.90;;;;;;5096691;28;20495;-74
2022/07/02 05:08:15;;;;;;;0.52;0.40;;;13.30;99.90;;;;;;5088915;28;20070;-74
2022/07/02 05:10:41;;;;;;;1.13;0.47;;;13.40;99.90;;;;;;5086208;28;20065;-74
2022/07/02 05:13:07;;;;;;;0.40;0.30;;;13.40;99.90;;;;;;5089264;28;20032;-73
2022/07/02 05:15:32;;;;;;;0.50;0.50;;;13.50;99.90;;;;;;5066729;28;20033;-76
2022/07/02 05:17:58;;;;;;;0.65;0.57;;;13.60;99.90;;;;;;5066523;28;20074;-76
2022/07/02 05:20:24;;;;;;;0.70;0.55;;;13.60;99.90;;;;;;5091037;28;20459;-76
2022/07/02 05:22:50;;;;;;;0.47;0.47;;;13.60;99.90;;;;;;5069048;28;20046;-76
2022/07/02 05:25:15;;;;;;;1.20;0.63;;;13.70;99.90;;;;;;5073144;28;20049;-76
2022/07/02 05:27:41;;;;;;;0.60;0.60;;;13.80;99.90;;;;;;5090684;28;20124;-76
2022/07/02 05:30:07;;;;;;;0.60;0.60;;;13.80;99.90;;;;;;5085845;28;20142;-76
2022/07/02 05:32:32;;;;;;;0.93;0.70;;;13.90;99.90;;;;;;5090210;28;20035;-76
2022/07/02 05:34:58;;;;;;;0.63;0.63;;;14.00;99.90;;;;;;5088808;28;20464;-77
2022/07/02 05:37:24;;;;;;;0.57;0.55;;;14.00;99.90;;;;;;5067371;28;20122;-76
2022/07/02 05:39:49;;;;;;;0.50;0.50;;;14.00;99.90;;;;;;5086427;28;20060;-76
2022/07/02 05:42:15;;;;;;;0.70;0.60;;;14.10;99.90;;;;;;5083104;28;20051;-76
2022/07/02 05:44:41;;;;;;;0.60;0.50;;;14.20;99.90;;;;;;5087428;28;20078;-76
2022/07/02 05:47:06;;;;;;;0.85;0.60;;;14.30;99.90;;;;;;5084764;28;20570;-76
2022/07/02 05:49:32;;;;;;;0.85;0.47;;;14.40;99.90;;;;;;5075032;28;20043;-76
2022/07/02 05:51:58;;;;;;;0.73;0.50;;;14.40;99.90;;;;;;5090689;28;20068;-74
2022/07/02 05:54:23;;;;;;;1.00;0.70;;;14.50;99.90;;;;;;5068972;28;20112;-75
2022/07/02 05:56:49;;;;;;;1.00;0.70;;;14.70;99.90;;;;;;5082623;28;20105;-74
2022/07/02 05:59:15;;;;;;;1.70;0.80;;;14.70;99.90;;;;;;5098275;28;20447;-74
2022/07/02 06:01:40;;;;;;;1.35;0.90;;;14.90;99.90;;;;;;5071747;28;20047;-75
2022/07/02 06:04:06;;;;;;;1.13;0.70;;;14.90;99.90;;;;;;5097822;28;20127;-75
2022/07/02 06:09:29;;;;;;;;;;;15.20;99.90;;;;;;5047303;28;20526;-75
2022/07/02 06:11:55;;;;;;;1.88;0.82;;;15.30;99.90;;;;;;5108506;27;19973;-76
2022/07/02 06:14:20;;;;;;;1.60;0.95;;;15.40;99.90;;;;;;5071514;27;20687;-76
2022/07/02 06:16:46;;;;;;;0.88;0.70;;;15.60;99.90;;;;;;5077539;28;20070;-79
2022/07/02 06:19:12;;;;;;;0.85;0.63;;;15.70;99.90;;;;;;5086726;28;20035;-76
2022/07/02 06:21:37;;;;;;;1.17;0.70;;;15.80;99.90;;;;;;5078348;28;20390;-75
2022/07/02 06:24:03;;;;;;;2.00;1.10;;;15.90;99.90;;;;;;5083993;28;20480;-75
2022/07/02 06:26:29;;;;;;;1.00;0.70;;;16.10;99.90;;;;;;5094749;28;20466;-75
2022/07/02 06:28:54;;;;;;;2.75;0.70;;;16.20;99.90;;;;;;5094360;28;20406;-76
2022/07/02 06:31:20;;;;;;;1.10;0.60;;;16.30;99.90;;;;;;5076080;27;20039;-76
2022/07/02 06:33:46;;;;;;;2.55;0.85;;;16.30;99.90;;;;;;5092732;28;20043;-75
2022/07/02 06:36:14;;;;;;;1.00;0.60;;;16.40;99.90;;;;;;5058826;28;20044;-76
2022/07/02 06:38:41;;;;;;;1.33;0.57;;;16.50;99.90;;;;;;5093052;28;20465;-76
2022/07/02 06:43:51;;;;;;;1.75;0.60;;;16.60;99.90;;;;;;5090013;28;20100;-76
2022/07/02 06:46:16;;;;;;;1.88;0.85;;;16.70;99.90;;;;;;5094327;28;20455;-75
2022/07/02 06:48:42;;;;;;;2.13;0.80;;;16.80;99.90;;;;;;5079582;27;20364;-77
2022/07/02 06:51:08;;;;;;;1.20;0.70;;;16.80;99.90;;;;;;5076850;28;20058;-77
2022/07/02 06:53:33;;;;;;;1.73;0.70;;;16.90;99.90;;;;;;5071781;28;20364;-76
2022/07/02 06:55:59;;;;;;;2.05;0.90;;;16.90;99.90;;;;;;5104936;27;20421;-73
2022/07/02 06:58:24;;;;;;;0.90;0.60;;;17.00;99.90;;;;;;5091175;28;20463;-73
2022/07/02 07:00:50;;;;;;;2.05;1.00;;;17.20;99.90;;;;;;5085051;28;20067;-77
2022/07/02 07:03:16;;;;;;;1.08;0.80;;;17.20;99.90;;;;;;5074012;27;20451;-76
2022/07/02 07:05:46;;;;;;;1.58;0.70;;;17.30;99.90;;;;;;5088854;28;20051;-76
2022/07/02 07:08:15;;;;;;;2.08;0.57;;;17.40;99.90;;;;;;5089312;28;20123;-76
2022/07/02 07:10:41;;;;;;;1.70;0.70;;;17.60;99.90;;;;;;5087752;28;20478;-76
2022/07/02 07:13:06;;;;;;;0.70;0.50;;;17.60;99.90;;;;;;5075382;28;20084;-76
2022/07/02 07:15:32;;;;;;;1.95;0.60;;;17.80;99.90;;;;;;5076054;28;20035;-76
2022/07/02 07:17:58;;;;;;;2.38;0.80;;;17.80;99.90;;;;;;5088351;28;20059;-76
2022/07/02 07:20:29;;;;;;;1.40;0.70;;;17.80;99.90;;;;;;5074205;28;20240;-75
2022/07/02 07:22:55;;;;;;;2.05;0.70;;;17.90;99.90;;;;;;5081762;28;20161;-76
2022/07/02 07:25:21;;;;;;;0.63;0.40;;;18.00;99.90;;;;;;5085597;28;20040;-77
2022/07/02 07:27:48;;;;;;;1.25;0.70;;;18.20;99.90;;;;;;5090677;28;20123;-76
2022/07/02 07:30:14;;;;;;;3.30;0.90;;;18.10;99.90;;;;;;5083456;28;20047;-76
2022/07/02 07:32:40;;;;;;;1.20;0.73;;;18.10;99.90;;;;;;5087991;28;20044;-76
2022/07/02 07:35:06;;;;;;;1.63;0.70;;;18.10;99.90;;;;;;5091990;28;20032;-76
2022/07/02 07:37:31;;;;;;;;;;;18.30;99.90;;;;;;5090595;27;20113;-76
2022/07/02 07:39:57;;;;;;;1.40;0.70;;;18.40;99.90;;;;;;5091697;28;21123;-76
2022/07/02 07:42:23;;;;;;;2.00;0.80;;;18.40;99.90;;;;;;5071508;28;20040;-76
2022/07/02 07:44:49;;;;;;;;;;;18.50;99.90;;;;;;5082555;28;20046;-76
2022/07/02 07:47:15;;;;;;;2.22;0.82;;;18.70;99.90;;;;;;5089255;27;20319;-75
2022/07/02 07:49:41;;;;;;;1.92;0.70;;;18.70;99.90;;;;;;5102096;27;20087;-76
2022/07/02 07:52:06;;;;;;;;;;;19.00;99.90;;;;;;5092189;28;20083;-76
2022/07/02 07:54:32;;;;;;;1.50;0.70;;;19.00;99.90;;;;;;5091683;28;19927;-76
2022/07/02 07:56:58;;;;;;;;;;;19.10;99.90;;;;;;5074814;28;20056;-77
2022/07/02 07:59:23;;;;;;;1.65;0.60;;;19.00;99.90;;;;;;5093858;28;20011;-78
2022/07/02 08:01:49;;;;;;;;;;;19.10;99.90;;;;;;5087139;28;20494;-77
2022/07/02 08:04:15;;;;;;;1.90;0.60;;;19.20;99.90;;;;;;5088717;28;19954;-77
2022/07/02 08:06:40;;;;;;;;;;;19.40;99.90;;;;;;5083504;28;20047;-77
2022/07/02 08:09:06;;;;;;;1.60;0.65;;;19.40;99.90;;;;;;5090906;28;20073;-78
2022/07/02 08:11:32;;;;;;;1.65;0.50;;;19.60;99.90;;;;;;5092110;28;20055;-77
2022/07/02 08:13:58;;;;;;;;;;;19.70;99.90;;;;;;5073139;28;20535;-77
2022/07/02 08:16:23;;;;;;;2.53;0.60;;;19.80;99.90;;;;;;5083888;28;20011;-77
2022/07/02 08:18:49;;;;;;;;;;;20.00;99.90;;;;;;5078439;28;20131;-77
2022/07/02 08:21:15;;;;;;;1.05;0.40;;;20.10;99.90;;;;;;5103887;28;20008;-76
2022/07/02 08:23:41;;;;;;;;;;;20.40;99.90;;;;;;5091247;28;20041;-77
2022/07/02 08:26:07;;;;;;;1.42;0.40;;;20.30;98.10;;;;;;5084877;28;19992;-77
2022/07/02 08:28:33;;;;;;;1.38;0.60;;;20.70;99.90;;;;;;5088542;28;20122;-77
2022/07/02 08:30:59;;;;;;;0.70;0.38;;;20.90;99.90;;;;;;5082250;28;20118;-76
2022/07/02 08:33:25;;;;;;;0.75;0.50;;;21.20;99.50;;;;;;5089075;28;20146;-77
2022/07/02 08:35:50;;;;;;;;;;;21.10;95.90;;;;;;5100278;27;20094;-77
2022/07/02 08:38:16;;;;;;;2.42;0.55;;;21.40;97.30;;;;;;5092038;28;19919;-77
2022/07/02 08:40:44;;;;;;;1.73;0.50;;;21.60;97.10;;;;;;5085655;28;20375;-76
2022/07/02 08:43:14;;;;;;;0.82;0.40;;;21.50;95.80;;;;;;5087476;28;20780;-77
2022/07/02 08:45:42;;;;;;;1.10;0.45;;;21.40;95.80;;;;;;5089986;28;20050;-76
2022/07/02 08:48:11;;;;;;;1.10;0.40;;;21.60;96.10;;;;;;5085940;28;20217;-77
2022/07/02 08:50:38;;;;;;;0.93;0.40;;;21.60;98.30;;;;;;5070690;28;20039;-77
2022/07/02 08:53:04;;;;;;;0.90;0.50;;;21.40;96.20;;;;;;5086540;28;20324;-77
2022/07/02 08:55:33;;;;;;;1.48;0.40;;;21.40;96.90;;;;;;5090079;28;20040;-77
2022/07/02 08:57:59;;;;;;;2.17;0.70;;;21.30;95.60;;;;;;5062299;28;20040;-76
2022/07/02 09:00:25;;;;;;;1.80;0.73;;;21.30;95.70;;;;;;5088865;28;20127;-77
2022/07/02 09:02:57;;;;;;;2.13;0.50;;;21.40;97.60;;;;;;5082911;28;20518;-76
2022/07/02 09:05:25;;;;;;;1.48;0.50;;;21.50;95.90;;;;;;5091487;28;20058;-75
2022/07/02 09:07:51;;;;;;;0.73;0.40;;;21.70;96.20;;;;;;5089657;28;20071;-75
2022/07/02 09:10:20;;;;;;;0.57;0.25;;;21.90;95.10;;;;;;5081794;28;20046;-76
2022/07/02 09:12:47;;;;;;;1.48;0.52;;;21.80;95.30;;;;;;5098468;28;20078;-76
2022/07/02 09:15:14;;;;;;;3.20;0.57;;;21.50;94.10;;;;;;5092325;28;20111;-76
2022/07/02 09:17:41;;;;;;;0.88;0.30;;;21.60;93.90;;;;;;5068270;28;20068;-77
2022/07/02 09:20:09;;;;;;;0.28;0.20;;;21.80;95.00;;;;;;5091909;28;20035;-76
2022/07/02 09:22:48;;;;;;;0.77;0.30;;;21.80;93.30;;;;;;5094037;28;20139;-77
2022/07/02 09:25:25;;;;;;;0.55;0.20;;;22.10;94.20;;;;;;5097240;28;20084;-76
2022/07/02 09:28:03;;;;;;;1.10;0.30;;;22.00;92.30;;;;;;5098287;28;20035;-76
2022/07/02 09:30:36;;;;;;;1.17;0.40;;;22.10;92.50;;;;;;5090384;28;20040;-75
2022/07/02 09:35:47;;;;;;;0.98;0.32;;;22.30;92.20;;;;;;5094158;28;20050;-75
2022/07/02 09:38:13;;;;;;;0.95;0.55;;;22.20;91.30;;;;;;5094970;27;20031;-76
2022/07/02 09:40:51;;;;;;;0.77;0.30;;;22.20;92.10;;;;;;5095469;28;20164;-75
2022/07/02 09:43:27;;;;;;;0.77;0.30;;;22.10;91.60;;;;;;5095246;28;20117;-76
2022/07/02 09:45:55;;;;;;;0.32;0.20;;;22.20;91.20;;;;;;5105461;28;20096;-75
2022/07/02 09:48:20;;;;;;;0.47;0.30;;;22.40;91.90;;;;;;5094191;28;20077;-74
2022/07/02 09:50:46;;;;;;;1.48;0.43;;;22.40;91.40;;;;;;5103187;28;20031;-75
2022/07/02 09:53:12;;;;;;;0.98;0.22;;;22.50;90.80;;;;;;5079744;28;20127;-75
2022/07/02 09:55:38;;;;;;;0.65;0.35;;;22.70;90.80;;;;;;5089876;28;20411;-75
2022/07/02 09:58:05;;;;;;;1.83;0.40;;;22.70;90.70;;;;;;5099254;27;20396;-75
2022/07/02 10:00:33;;;;;;;0.98;0.40;;;22.60;90.20;;;;;;5096283;28;20046;-75
2022/07/02 10:03:01;;;;;;;0.82;0.40;;;22.40;91.20;;;;;;5096333;28;20103;-75
2022/07/02 10:05:33;;;;;;;0.30;0.20;;;22.30;91.10;;;;;;5092339;28;20150;-75
2022/07/02 10:08:04;;;;;;;0.38;0.20;;;22.80;91.70;;;;;;5092154;28;20439;-75
2022/07/02 10:10:40;;;;;;;0.88;0.30;;;22.80;90.50;;;;;;5053258;28;20318;-76
2022/07/02 10:13:11;;;;;;;1.10;0.40;;;23.20;91.40;;;;;;5090874;28;20028;-75
2022/07/02 10:15:40;;;;;;;1.70;0.40;;;23.20;91.40;;;;;;5093118;28;20032;-75
2022/07/02 10:18:06;;;;;;;3.22;0.70;;;22.90;88.80;;;;;;5091921;28;20455;-74
2022/07/02 10:20:34;;;;;;;0.73;0.28;;;22.40;89.10;;;;;;5090456;28;20202;-74
2022/07/02 10:23:04;;;;;;;1.40;0.40;;;22.70;91.20;;;;;;5091706;28;20081;-75
2022/07/02 10:25:30;;;;;;;1.60;0.40;;;22.80;90.70;;;;;;5092325;28;20040;-74
2022/07/02 10:27:56;;;;;;;1.25;0.43;;;23.00;90.40;;;;;;5074931;28;20094;-75
2022/07/02 10:30:33;;;;;;;0.60;0.30;;;22.70;89.90;;;;;;5091492;28;20059;-75
2022/07/02 10:33:20;;;;;;;0.80;0.30;;;22.80;90.60;;;;;;5087477;28;20031;-74
2022/07/02 10:35:49;;;;;;;1.42;0.30;;;22.70;90.20;;;;;;5085179;28;20039;-75
2022/07/02 10:38:15;;;;;;;1.35;0.30;;;22.60;89.90;;;;;;5091206;28;20086;-74
2022/07/02 10:40:48;;;;;;;1.00;0.30;;;22.50;90.00;;;;;;5072825;28;20072;-75
2022/07/02 10:43:18;;;;;;;1.02;0.30;;;22.60;90.00;;;;;;5091560;28;20437;-75
2022/07/02 10:45:45;;;;;;;1.65;0.30;;;22.70;90.30;;;;;;5096813;28;20035;-81
2022/07/02 10:48:13;;;;;;;0.63;0.30;;;22.90;90.10;;;;;;5092490;28;20035;-76
2022/07/02 10:50:40;;;;;;;0.52;0.15;;;22.90;89.20;;;;;;5087844;28;20077;-75
2022/07/02 10:53:20;;;;;;;0.50;0.20;;;22.80;90.30;;;;;;5090728;28;20345;-75
2022/07/02 10:55:58;;;;;;;1.45;0.40;;;22.70;90.10;;;;;;5089648;28;20486;-74
2022/07/02 10:58:36;;;;;;;3.25;0.40;;;22.40;88.40;;;;;;5088591;28;20040;-75
2022/07/02 11:01:14;;;;;;;1.77;0.52;;;22.00;90.00;;;;;;5083319;28;20120;-75
2022/07/02 11:04:00;;;;;;;2.30;0.30;;;21.60;90.00;;;;;;5090528;28;20047;-75
2022/07/02 11:06:31;;;;;;;1.92;0.40;;;21.70;90.80;;;;;;5090952;28;20060;-75
2022/07/02 11:09:00;;;;;;;1.67;0.32;;;22.00;90.80;;;;;;5082569;28;20471;-74
2022/07/02 11:11:35;;;;;;;0.90;0.30;;;22.40;91.00;;;;;;5089486;28;20502;-75
2022/07/02 11:14:04;;;;;;;1.17;0.40;;;22.90;89.20;;;;;;5071750;28;20047;-74
2022/07/02 11:16:41;;;;;;;0.93;0.20;;;22.70;89.00;;;;;;5092659;28;20047;-74
2022/07/02 11:19:27;;;;;;;1.33;0.30;;;23.00;88.80;;;;;;5089999;28;20122;-74
2022/07/02 11:21:58;;;;;;;1.40;0.28;;;23.10;87.70;;;;;;5085705;28;20055;-75
2022/07/02 11:24:26;;;;;;;0.82;0.25;;;23.40;89.10;;;;;;5090769;28;20121;-75
2022/07/02 11:26:52;;;;;;;0.38;0.20;;;23.50;87.70;;;;;;5090563;28;20060;-75
2022/07/02 11:29:18;;;;;;;0.65;0.40;;;23.10;86.50;;;;;;5082409;28;20032;-75
2022/07/02 11:31:52;;;;;;;0.70;0.40;;;22.90;86.70;;;;;;5090302;28;20108;-74
2022/07/02 11:34:23;;;;;;;0.20;0.20;;;22.40;85.90;;;;;;5090839;28;20479;-74
2022/07/02 11:36:50;;;;;;;0.40;0.20;;;22.20;87.30;;;;;;5090051;28;20039;-74
2022/07/02 11:39:18;;;;;;;0.30;0.20;;;22.00;86.60;;;;;;5090213;28;20031;-73
2022/07/02 11:41:45;;;;;;;1.42;0.35;;;22.30;88.00;;;;;;5064105;28;20051;-73
2022/07/02 11:44:18;;;;;;;1.10;0.38;;;22.20;88.30;;;;;;5086498;28;20058;-74
2022/07/02 11:46:50;;;;;;;1.48;0.40;;;21.80;87.60;;;;;;5089865;28;20044;-74
2022/07/02 11:49:20;;;;;;;1.52;0.50;;;21.80;89.40;;;;;;5090556;28;20059;-73
2022/07/02 11:51:47;;;;;;;0.47;0.20;;;21.70;90.10;;;;;;5091793;28;20431;-74
2022/07/02 11:54:14;;;;;;;0.73;0.30;;;21.60;88.80;;;;;;5100866;28;20055;-74
2022/07/02 11:56:41;;;;;;;1.13;0.40;;;21.70;89.70;;;;;;5090222;28;20486;-75
2022/07/02 11:59:13;;;;;;;0.75;0.40;;;21.70;90.30;;;;;;5090321;28;20450;-73
2022/07/02 12:01:41;;;;;;;0.82;0.40;;;21.80;90.40;;;;;;5094281;28;20451;-74
2022/07/02 12:04:10;;;;;;;0.45;0.17;;;22.10;90.40;;;;;;5090372;28;20403;-73
2022/07/02 12:06:41;;;;;;;1.23;0.32;;;22.50;90.20;;;;;;5072836;28;20109;-74
2022/07/02 12:09:13;;;;;;;0.80;0.30;;;22.40;88.60;;;;;;5104061;28;20336;-74
2022/07/02 12:11:41;;;;;;;0.82;0.17;;;22.30;88.70;;;;;;5089810;28;20113;-74
2022/07/02 12:14:09;;;;;;;0.82;0.40;;;22.20;89.50;;;;;;5097411;28;20036;-74
2022/07/02 12:16:36;;;;;;;0.60;0.20;;;21.90;90.20;;;;;;5073243;28;20040;-74
2022/07/02 12:19:10;;;;;;;0.60;0.20;;;22.10;90.00;;;;;;5088642;28;20230;-74
2022/07/02 12:21:44;;;;;;;0.25;0.20;;;22.20;90.50;;;;;;5089411;28;20135;-75
2022/07/02 12:24:26;;;;;;;0.28;0.20;;;22.20;89.90;;;;;;5089146;28;20074;-74
2022/07/02 12:26:54;;;;;;;0.43;0.20;;;22.10;88.70;;;;;;5089724;28;20032;-74
2022/07/02 12:32:16;;;;;;;0.60;0.20;;;22.60;90.30;;;;;;5089768;28;20483;-74
2022/07/02 12:34:43;;;;;;;0.73;0.25;;;22.70;88.60;;;;;;5068184;28;20068;-74
2022/07/02 12:37:43;;;;;;;0.47;0.20;;;22.80;88.00;;;;;;5089522;28;20518;-74
2022/07/02 12:40:17;;;;;;;0.30;0.20;;;22.90;87.80;;;;;;5056845;28;20059;-74
2022/07/02 12:42:49;;;;;;;0.85;0.30;;;22.80;88.20;;;;;;5089526;28;20050;-74
2022/07/02 12:45:23;;;;;;;2.05;0.43;;;22.60;88.00;;;;;;5089202;28;20134;-74
2022/07/02 12:48:00;;;;;;;0.55;0.25;;;22.50;88.20;;;;;;5089327;28;20047;-73
2022/07/02 12:50:35;;;;;;;2.45;0.30;;;22.90;88.80;;;;;;5088809;28;20063;-73
2022/07/02 12:53:04;;;;;;;1.00;0.30;;;22.90;87.00;;;;;;5089717;28;20188;-74
2022/07/02 12:55:33;;;;;;;1.73;0.40;;;22.70;88.80;;;;;;5087500;28;20044;-73
2022/07/02 12:58:07;;;;;;;0.47;0.25;;;22.90;88.60;;;;;;5098227;28;20036;-74
2022/07/02 13:00:33;;;;;;;0.75;0.10;;;23.20;87.90;;;;;;5093693;28;20102;-74
2022/07/02 13:03:04;;;;;;;0.45;0.28;;;23.40;87.60;;;;;;5094136;28;20545;-73
2022/07/02 13:05:34;;;;;;;2.00;0.45;;;23.50;87.60;;;;;;5090028;28;20055;-73